Terminal Aerodrome Forecast
Issued by NWS

Home | Current Version | Previous Version | Text Only | Print | Product List | Glossary On
Versions: 1 2 3 4 5 6 7 8 9 10 11 12 13 14
362
FTUS42 KTBW 282335 AAB
TAFRSW
TAF AMD
KRSW 282335Z 2900/2924 22005KT P6SM VCTS BKN045CB
     FM290200 18004KT P6SM VCTS SCT045CB BKN070
     FM290600 00000KT P6SM FEW035 SCT060
     FM291800 21005KT P6SM VCTS SCT040CB SCT150=

USA.gov is the U.S. government's official web portal to all federal, state and local government web resources and services.